createdAt,value
2018-04-16T00:00:24.657Z,79.40
2018-04-16T00:06:29.091Z,79.05
2018-04-16T00:12:33.525Z,79.33
2018-04-16T00:18:37.891Z,79.20
2018-04-16T00:24:42.781Z,79.27
2018-04-16T00:30:47.990Z,80.50
2018-04-16T00:36:57.822Z,79.81
2018-04-16T00:43:07.660Z,79.97
2018-04-16T00:49:18.319Z,80.59
2018-04-16T00:55:28.150Z,81.49
2018-04-16T01:01:38.066Z,82.16
2018-04-16T01:07:48.572Z,82.50
2018-04-16T01:13:58.482Z,83.12
2018-04-16T01:20:08.431Z,83.34
2018-04-16T01:26:18.499Z,83.40
2018-04-16T01:32:28.335Z,84.23
2018-04-16T01:38:38.338Z,84.31
2018-04-16T01:44:48.226Z,84.21
2018-04-16T01:50:58.176Z,85.35
2018-04-16T01:57:08.168Z,85.34
2018-04-16T02:03:18.155Z,85.52
2018-04-16T02:09:28.873Z,85.53
2018-04-16T02:15:38.699Z,85.34
2018-04-16T02:21:48.858Z,84.92
2018-04-16T02:27:58.819Z,84.71
2018-04-16T02:40:52.408Z,84.15
2018-04-16T03:04:11.587Z,84.26
2018-04-16T03:10:21.404Z,84.08
2018-04-16T03:16:31.291Z,84.96
2018-04-16T03:22:41.771Z,85.58
2018-04-16T03:28:52.427Z,85.65
2018-04-16T03:35:02.274Z,85.85
2018-04-16T03:41:13.601Z,86.23
2018-04-16T03:47:23.582Z,85.92
2018-04-16T03:53:30.325Z,85.67
2018-04-16T03:59:34.700Z,85.74
2018-04-16T04:05:39.130Z,85.16
2018-04-16T04:11:43.681Z,85.86
2018-04-16T04:17:48.095Z,85.58
2018-04-16T04:24:10.430Z,85.70
2018-04-16T04:30:41.641Z,85.51
2018-04-16T04:36:46.109Z,85.76
2018-04-16T04:42:50.499Z,86.20
2018-04-16T04:48:54.929Z,86.01
2018-04-16T04:54:59.302Z,85.89
2018-04-16T05:01:03.678Z,86.03
2018-04-16T05:07:08.051Z,85.86
2018-04-16T05:13:12.516Z,85.84
2018-04-16T05:19:16.899Z,85.55
2018-04-16T05:25:21.378Z,84.99
2018-04-16T05:31:25.755Z,85.07
2018-04-16T05:37:30.116Z,85.05
2018-04-16T05:43:34.482Z,85.23
2018-04-16T05:49:39.651Z,84.14
2018-04-16T05:55:44.796Z,84.19
2018-04-16T06:01:49.162Z,84.53
2018-04-16T06:07:53.648Z,84.46
2018-04-16T06:13:58.001Z,84.97
2018-04-16T06:20:02.399Z,85.31
2018-04-16T06:26:06.784Z,85.17
2018-04-16T06:32:12.011Z,85.02
2018-04-16T06:38:16.376Z,85.42
2018-04-16T06:44:20.746Z,85.36
2018-04-16T06:50:25.919Z,85.05
2018-04-16T06:56:30.294Z,85.44
2018-04-16T07:02:34.642Z,84.74
2018-04-16T07:08:39.038Z,84.84
2018-04-16T07:14:43.527Z,85.04
2018-04-16T07:20:47.903Z,85.21
2018-04-16T07:26:52.346Z,84.87
2018-04-16T07:32:56.719Z,84.70
2018-04-16T07:39:01.306Z,83.40
2018-04-16T07:45:05.667Z,83.64
2018-04-16T07:51:10.047Z,81.87
2018-04-16T07:57:14.434Z,80.61
2018-04-16T08:03:18.785Z,80.06
2018-04-16T08:09:23.976Z,78.86
2018-04-16T08:15:29.106Z,77.03
2018-04-16T08:21:33.462Z,76.95
2018-04-16T08:27:37.820Z,75.88
2018-04-16T08:33:42.954Z,74.20
2018-04-16T08:39:47.330Z,73.28
2018-04-16T08:45:51.710Z,72.78
2018-04-16T08:51:56.083Z,70.43
2018-04-16T08:58:00.473Z,69.32
2018-04-16T09:04:04.857Z,68.59
2018-04-16T09:10:09.266Z,68.10
2018-04-16T09:16:13.645Z,67.97
2018-04-16T09:22:18.847Z,65.48
2018-04-16T09:28:23.210Z,65.92
2018-04-16T09:34:28.654Z,63.28
2018-04-16T09:40:32.993Z,61.36
2018-04-16T09:46:37.364Z,59.92
2018-04-16T09:52:42.592Z,57.37
2018-04-16T09:58:46.959Z,57.46
2018-04-16T10:04:51.339Z,58.16
2018-04-16T10:10:56.019Z,58.10
2018-04-16T10:17:01.151Z,56.79
2018-04-16T10:23:06.316Z,54.24
2018-04-16T10:29:10.707Z,56.75
2018-04-16T10:35:15.075Z,56.52
2018-04-16T10:41:19.446Z,55.68
2018-04-16T10:47:23.840Z,54.43
2018-04-16T10:53:28.216Z,52.97
2018-04-16T10:59:32.588Z,52.64
2018-04-16T11:05:36.970Z,51.42
2018-04-16T11:11:41.355Z,48.50
2018-04-16T11:17:46.580Z,50.38
2018-04-16T11:23:50.946Z,52.61
2018-04-16T11:29:55.404Z,51.83
2018-04-16T11:36:00.529Z,52.68
2018-04-16T11:42:04.918Z,52.48
2018-04-16T11:48:09.430Z,51.31
2018-04-16T11:54:13.967Z,51.18
2018-04-16T12:00:18.338Z,51.52
2018-04-16T12:06:22.694Z,50.44
2018-04-16T12:12:27.058Z,51.82
2018-04-16T12:18:32.195Z,52.07
2018-04-16T12:24:36.549Z,49.92
2018-04-16T12:30:40.969Z,48.82
2018-04-16T12:36:45.375Z,46.69
2018-04-16T12:42:49.734Z,45.66
2018-04-16T12:49:00.923Z,43.36
2018-04-16T12:55:10.918Z,41.34
2018-04-16T13:01:26.666Z,43.41
2018-04-16T13:07:36.815Z,40.64
2018-04-16T13:13:41.301Z,43.22
2018-04-16T13:19:51.838Z,42.36
2018-04-16T13:26:02.834Z,46.61
2018-04-16T13:32:13.167Z,48.83
2018-04-16T13:38:28.952Z,49.38
2018-04-16T13:44:39.193Z,53.50
2018-04-16T13:50:49.320Z,56.46
2018-04-16T13:56:53.674Z,56.67
2018-04-16T14:02:58.198Z,57.67
2018-04-16T14:09:09.290Z,56.82
2018-04-16T14:15:19.498Z,58.29
2018-04-16T14:21:23.880Z,57.58
2018-04-16T14:27:40.270Z,57.26
2018-04-16T14:33:50.655Z,53.79
2018-04-16T14:40:06.979Z,54.73
2018-04-16T14:46:17.339Z,51.22
2018-04-16T14:52:21.733Z,50.34
2018-04-16T14:58:26.141Z,45.68
2018-04-16T15:04:36.278Z,39.21
2018-04-16T15:10:46.583Z,35.69
2018-04-16T15:16:50.987Z,36.35
2018-04-16T15:22:55.483Z,34.83
2018-04-16T15:29:00.233Z,35.25
2018-04-16T15:35:04.723Z,34.51
2018-04-16T15:41:09.172Z,36.37
2018-04-16T15:47:13.847Z,35.24
2018-04-16T15:53:18.208Z,37.93
2018-04-16T15:59:22.594Z,38.52
2018-04-16T16:05:27.082Z,41.78
2018-04-16T16:11:31.468Z,42.02
2018-04-16T16:17:35.863Z,39.34
2018-04-16T16:23:40.372Z,40.99
2018-04-16T16:29:45.568Z,42.19
2018-04-16T16:35:50.777Z,42.49
2018-04-16T16:41:55.146Z,41.95
2018-04-16T16:47:59.519Z,44.42
2018-04-16T16:54:04.760Z,49.20
2018-04-16T17:00:09.150Z,51.09
2018-04-16T17:06:13.590Z,53.13
2018-04-16T17:12:18.004Z,53.19
2018-04-16T17:18:22.550Z,54.10
2018-04-16T17:24:26.992Z,54.36
2018-04-16T17:30:32.168Z,56.13
2018-04-16T17:36:37.322Z,55.81
2018-04-16T17:42:41.977Z,53.55
2018-04-16T17:48:46.418Z,56.23
2018-04-16T17:54:50.839Z,56.00
2018-04-16T18:00:55.342Z,59.72
2018-04-16T18:06:59.839Z,61.58
2018-04-16T18:13:04.205Z,64.02
2018-04-16T18:19:08.601Z,65.57
2018-04-16T18:25:13.451Z,66.82
2018-04-16T18:31:17.849Z,67.93
2018-04-16T18:37:22.303Z,67.68
2018-04-16T18:43:26.771Z,67.80
2018-04-16T18:49:31.283Z,68.35
2018-04-16T18:55:35.792Z,67.79
2018-04-16T19:01:40.638Z,66.11
2018-04-16T19:07:45.111Z,64.45
2018-04-16T19:13:49.477Z,64.66
2018-04-16T19:19:54.107Z,65.32
2018-04-16T19:25:59.324Z,65.14
2018-04-16T19:32:03.686Z,64.27
2018-04-16T19:38:08.086Z,65.53
2018-04-16T19:44:12.567Z,65.17
2018-04-16T19:50:17.056Z,65.54
2018-04-16T19:56:27.023Z,66.13
2018-04-16T20:02:36.988Z,66.56
2018-04-16T20:08:41.578Z,67.24
2018-04-16T20:14:46.006Z,67.25
2018-04-16T20:20:50.423Z,67.03
2018-04-16T20:26:54.836Z,66.16
2018-04-16T20:32:59.234Z,66.17
2018-04-16T20:39:03.638Z,66.47
2018-04-16T20:45:08.796Z,66.99
2018-04-16T20:51:13.534Z,67.86
2018-04-16T20:57:17.927Z,68.44
2018-04-16T21:03:22.425Z,68.77
2018-04-16T21:09:26.824Z,69.37
2018-04-16T21:15:31.299Z,69.75
2018-04-16T21:21:35.689Z,71.15
2018-04-16T21:27:40.226Z,71.54
2018-04-16T21:33:44.618Z,72.23
2018-04-16T21:39:49.006Z,72.32
2018-04-16T21:45:53.389Z,72.11
2018-04-16T21:51:57.770Z,72.28
2018-04-16T21:58:02.222Z,71.99
2018-04-16T22:04:06.677Z,72.51
2018-04-16T22:10:11.179Z,73.18
2018-04-16T22:16:15.547Z,73.37
2018-04-16T22:22:19.942Z,73.22
2018-04-16T22:28:24.421Z,73.19
2018-04-16T22:34:28.830Z,73.99
2018-04-16T22:40:34.841Z,73.36
2018-04-16T22:46:39.982Z,73.70
2018-04-16T22:52:44.576Z,74.42
2018-04-16T22:58:48.974Z,75.50
2018-04-16T23:04:54.965Z,74.94
2018-04-16T23:10:59.339Z,74.80
2018-04-16T23:17:03.807Z,74.45
2018-04-16T23:23:08.181Z,74.92
2018-04-16T23:29:12.734Z,75.26
2018-04-16T23:35:17.140Z,75.66
2018-04-16T23:41:21.528Z,76.09
2018-04-16T23:47:25.937Z,78.21
2018-04-16T23:53:31.076Z,78.55
2018-04-16T23:59:35.462Z,78.76
